Time;durP1;ratioP1;P1;durP2;ratioP2;P2;SDS_P1;SDS_P2;PMS_P1;PMS_P2;Temp;Humidity;BMP_temperature;BMP_pressure;BME280_temperature;BME280_humidity;BME280_pressure;Samples;Min_cycle;Max_cycle;Signal;HPM_P1;HPM_P2
2022/02/25 00:02:00;;;;;;;3.28;2.10;;;;;;;4.74;69.76;100553.63;5037623;28;20044;-22
2022/02/25 00:04:25;;;;;;;2.55;2.35;;;;;;;4.71;70.21;100550.09;5036637;28;20411;-22
2022/02/25 00:06:51;;;;;;;3.38;1.90;;;;;;;4.69;69.76;100554.41;5044575;28;20031;-22
2022/02/25 00:09:16;;;;;;;3.20;2.42;;;;;;;4.62;69.38;100559.56;5039740;28;20044;-22
2022/02/25 00:11:41;;;;;;;2.50;2.28;;;;;;;4.63;69.51;100568.28;5039321;28;20025;-22
2022/02/25 00:14:07;;;;;;;2.30;2.10;;;;;;;4.60;69.42;100568.22;5048526;28;20021;-22
2022/02/25 00:16:32;;;;;;;2.08;1.98;;;;;;;4.57;69.95;100562.97;5025192;28;20028;-22
2022/02/25 00:18:58;;;;;;;2.95;2.30;;;;;;;4.54;70.06;100573.38;5045739;28;20056;-22
2022/02/25 00:21:23;;;;;;;2.42;2.20;;;;;;;4.51;69.86;100583.78;5041285;28;20065;-22
2022/02/25 00:23:49;;;;;;;2.15;1.95;;;;;;;4.45;69.57;100577.63;5047055;28;20479;-22
2022/02/25 00:26:14;;;;;;;2.67;2.40;;;;;;;4.40;69.89;100583.63;5044109;28;20018;-22
2022/02/25 00:28:40;;;;;;;3.05;2.75;;;;;;;4.36;69.90;100582.69;5045887;28;20043;-22
2022/02/25 00:31:05;;;;;;;2.22;2.10;;;;;;;4.28;70.24;100589.53;5039060;28;20082;-22
2022/02/25 00:33:30;;;;;;;2.75;2.42;;;;;;;4.26;69.84;100586.03;5044392;28;20120;-21
2022/02/25 00:35:56;;;;;;;2.83;2.60;;;;;;;4.27;70.42;100587.78;5036302;28;20164;-22
2022/02/25 00:38:21;;;;;;;3.10;2.25;;;;;;;4.26;70.46;100594.72;5035672;28;20028;-22
2022/02/25 00:40:47;;;;;;;3.28;2.88;;;;;;;4.23;70.16;100598.19;5033236;28;20029;-22
2022/02/25 00:43:12;;;;;;;2.83;2.47;;;;;;;4.21;70.11;100612.91;5043201;28;20448;-22
2022/02/25 00:45:38;;;;;;;4.05;2.67;;;;;;;4.19;70.68;100617.25;5038759;28;20029;-22
2022/02/25 00:48:04;;;;;;;3.03;2.40;;;;;;;4.16;70.52;100622.44;5041952;28;20437;-22
2022/02/25 00:50:29;;;;;;;2.97;2.42;;;;;;;4.13;70.16;100624.97;5044146;28;20065;-22
2022/02/25 00:52:55;;;;;;;3.55;2.75;;;;;;;4.12;70.54;100631.06;5041003;28;20033;-22
2022/02/25 00:55:21;;;;;;;4.05;3.10;;;;;;;4.09;70.35;100628.38;5043539;28;20021;-22
2022/02/25 00:57:47;;;;;;;3.33;2.83;;;;;;;4.07;70.37;100640.56;5041350;28;20124;-22
2022/02/25 01:00:14;;;;;;;3.55;2.75;;;;;;;4.03;70.47;100644.81;5041223;28;20151;-22
2022/02/25 01:02:40;;;;;;;2.97;2.55;;;;;;;4.00;70.57;100652.59;5044839;28;20577;-22
2022/02/25 01:05:05;;;;;;;3.65;3.17;;;;;;;4.01;70.92;100663.94;5040303;28;20098;-22
2022/02/25 01:07:31;;;;;;;5.70;2.78;;;;;;;3.97;70.43;100663.00;5041651;28;20087;-22
2022/02/25 01:09:56;;;;;;;2.90;2.40;;;;;;;3.94;70.57;100669.03;5043819;28;20434;-22
2022/02/25 01:12:21;;;;;;;4.13;3.08;;;;;;;3.89;70.83;100669.78;5045590;28;20480;-22
2022/02/25 01:14:47;;;;;;;4.55;2.80;;;;;;;3.87;70.79;100661.94;5038224;28;20084;-22
2022/02/25 01:17:12;;;;;;;2.67;2.30;;;;;;;3.85;71.00;100663.66;5045821;28;20021;-22
2022/02/25 01:19:38;;;;;;;3.72;2.88;;;;;;;3.83;70.55;100666.22;5045272;28;20503;-22
2022/02/25 01:22:04;;;;;;;4.00;2.85;;;;;;;3.84;71.00;100669.72;5039515;28;20144;-22
2022/02/25 01:24:29;;;;;;;3.10;2.80;;;;;;;3.83;70.85;100665.34;5041795;28;20045;-22
2022/02/25 01:26:54;;;;;;;2.70;2.50;;;;;;;3.78;70.97;100667.00;5036593;28;20081;-22
2022/02/25 01:29:20;;;;;;;4.32;2.72;;;;;;;3.77;70.55;100665.25;5043451;28;20028;-22
2022/02/25 01:31:46;;;;;;;4.15;2.70;;;;;;;3.76;71.01;100672.19;5037641;28;20021;-22
2022/02/25 01:34:11;;;;;;;3.35;2.50;;;;;;;3.73;70.67;100674.72;5044314;28;20033;-22
2022/02/25 01:36:37;;;;;;;2.45;2.25;;;;;;;3.71;70.80;100672.09;5040554;28;20473;-22
2022/02/25 01:39:03;;;;;;;3.05;2.85;;;;;;;3.67;70.97;100675.50;5032751;28;20025;-22
2022/02/25 01:41:30;;;;;;;3.42;3.10;;;;;;;3.69;70.94;100672.91;5038495;28;20073;-22
2022/02/25 01:44:15;;;;;;;3.75;2.63;;;;;;;3.66;70.83;100675.44;5041803;28;20770;-22
2022/02/25 01:46:46;;;;;;;2.85;2.65;;;;;;;3.62;70.75;100677.13;5030238;28;20442;-22
2022/02/25 01:49:11;;;;;;;3.40;3.10;;;;;;;3.57;70.88;100673.56;5033831;28;20116;-22
2022/02/25 01:51:36;;;;;;;3.95;2.90;;;;;;;3.58;70.83;100670.09;5038984;28;20120;-22
2022/02/25 01:54:02;;;;;;;3.40;2.85;;;;;;;3.55;70.94;100670.94;5041333;28;20087;-22
2022/02/25 01:56:27;;;;;;;2.83;2.50;;;;;;;3.54;70.76;100670.91;5037652;28;20107;-22
2022/02/25 01:58:54;;;;;;;4.65;2.53;;;;;;;3.50;70.91;100682.13;5038558;28;20070;-22
2022/02/25 02:01:19;;;;;;;2.70;2.50;;;;;;;3.45;71.18;100685.50;5042249;28;20029;-22
2022/02/25 02:03:44;;;;;;;4.38;2.75;;;;;;;3.45;71.28;100680.31;5040381;28;20032;-22
2022/02/25 02:06:10;;;;;;;3.60;2.70;;;;;;;3.40;71.39;100681.91;5038801;28;20541;-22
2022/02/25 02:08:35;;;;;;;3.13;2.92;;;;;;;3.39;71.55;100687.09;5036768;28;20028;-22
2022/02/25 02:11:01;;;;;;;3.28;2.38;;;;;;;3.39;71.63;100687.97;5038851;28;20024;-22
2022/02/25 02:13:26;;;;;;;3.40;2.63;;;;;;;3.35;71.43;100688.78;5033079;28;20025;-22
2022/02/25 02:15:52;;;;;;;3.28;2.97;;;;;;;3.35;71.05;100693.97;5039323;28;20028;-22
2022/02/25 02:18:17;;;;;;;2.70;2.45;;;;;;;3.28;70.99;100687.78;5037521;28;20475;-22
2022/02/25 02:20:42;;;;;;;3.08;2.78;;;;;;;3.28;71.00;100690.38;5047134;28;20044;-22
2022/02/25 02:23:08;;;;;;;4.40;2.80;;;;;;;3.26;71.38;100693.78;5042984;28;20029;-22
2022/02/25 02:25:33;;;;;;;5.13;3.42;;;;;;;3.24;71.75;100701.59;5038687;28;20037;-22
2022/02/25 02:30:42;;;;;;;3.15;2.78;;;;;;;3.18;71.25;100717.09;5039215;28;20048;-22
2022/02/25 02:33:08;;;;;;;3.50;3.20;;;;;;;3.19;71.54;100718.84;5042131;28;20029;-22
2022/02/25 02:35:34;;;;;;;3.33;2.78;;;;;;;3.14;71.63;100721.34;5043050;28;20368;-22
2022/02/25 02:37:59;;;;;;;3.53;3.13;;;;;;;3.13;71.43;100732.59;5038179;28;20108;-22
2022/02/25 02:40:25;;;;;;;3.33;3.03;;;;;;;3.13;71.59;100734.34;5036420;28;20017;-22
2022/02/25 02:42:50;;;;;;;3.42;3.10;;;;;;;3.11;71.31;100736.03;5036977;28;20021;-22
2022/02/25 02:45:15;;;;;;;4.75;3.33;;;;;;;3.08;71.22;100736.84;5034968;28;20487;-22
2022/02/25 02:47:42;;;;;;;3.95;3.33;;;;;;;3.04;71.92;100735.88;5036925;28;20122;-22
2022/02/25 02:50:07;;;;;;;5.93;3.83;;;;;;;3.05;71.47;100749.81;5042630;28;20044;-22
2022/02/25 02:52:33;;;;;;;3.95;3.55;;;;;;;3.02;71.29;100758.44;5038684;28;20102;-22
2022/02/25 02:54:59;;;;;;;3.40;3.10;;;;;;;3.01;71.29;100761.00;5041140;28;20020;-22
2022/02/25 02:57:25;;;;;;;3.80;3.45;;;;;;;3.00;71.51;100769.69;5035280;28;20053;-22
2022/02/25 02:59:50;;;;;;;3.97;3.55;;;;;;;2.98;71.47;100767.03;5041385;28;20063;-22
2022/02/25 03:02:16;;;;;;;4.03;3.63;;;;;;;2.95;71.53;100778.28;5042387;28;20059;-22
2022/02/25 03:04:41;;;;;;;4.10;3.80;;;;;;;2.92;71.59;100778.19;5037883;28;20021;-22
2022/02/25 03:07:07;;;;;;;4.47;4.10;;;;;;;2.92;71.69;100775.59;5033453;28;20055;-22
2022/02/25 03:09:33;;;;;;;4.57;3.78;;;;;;;2.90;71.51;100790.28;5039906;28;20021;-22
2022/02/25 03:11:58;;;;;;;4.53;4.10;;;;;;;2.88;71.59;100792.00;5035192;28;20505;-22
2022/02/25 03:14:24;;;;;;;4.85;3.80;;;;;;;2.86;71.61;100788.44;5041058;28;20025;-22
2022/02/25 03:16:49;;;;;;;6.05;4.18;;;;;;;2.83;71.73;100788.38;5037467;28;20026;-22
2022/02/25 03:19:15;;;;;;;4.32;3.92;;;;;;;2.82;71.73;100797.03;5034626;28;20033;-22
2022/02/25 03:21:40;;;;;;;4.43;3.97;;;;;;;2.80;71.77;100799.59;5035045;28;20037;-22
2022/02/25 03:24:05;;;;;;;5.55;4.10;;;;;;;2.79;71.81;100803.06;5033889;28;20016;-22
2022/02/25 03:26:31;;;;;;;9.68;5.10;;;;;;;2.74;71.93;100798.56;5044027;28;20444;-22
2022/02/25 03:28:56;;;;;;;5.45;4.50;;;;;;;2.77;72.05;100814.28;5030632;28;20045;-22
2022/02/25 03:31:21;;;;;;;5.25;3.83;;;;;;;2.75;71.83;100813.34;5025866;28;20037;-22
2022/02/25 03:33:47;;;;;;;5.38;4.30;;;;;;;2.72;72.12;100816.75;5031439;28;20037;-22
2022/02/25 03:36:12;;;;;;;7.82;4.40;;;;;;;2.73;72.00;100821.13;5034141;28;20032;-22
2022/02/25 03:38:37;;;;;;;4.85;4.45;;;;;;;2.69;71.74;100817.56;5031301;28;20034;-22
2022/02/25 03:41:03;;;;;;;4.60;3.92;;;;;;;2.68;71.62;100828.84;5034770;28;20397;-22
2022/02/25 03:43:28;;;;;;;5.57;3.97;;;;;;;2.67;71.94;100832.25;5033741;28;20026;-22
2022/02/25 03:45:54;;;;;;;5.85;4.28;;;;;;;2.66;71.69;100838.31;5039401;28;20507;-22
2022/02/25 03:48:19;;;;;;;4.18;3.85;;;;;;;2.65;72.07;100835.69;5044101;28;20483;-22
2022/02/25 03:50:45;;;;;;;5.78;3.60;;;;;;;2.60;72.08;100835.53;5042257;28;20124;-22
2022/02/25 03:53:10;;;;;;;4.18;3.70;;;;;;;2.61;71.85;100837.34;5039394;28;20111;-22
2022/02/25 03:55:35;;;;;;;5.00;3.78;;;;;;;2.61;71.79;100845.16;5039104;28;20484;-22
2022/02/25 03:58:01;;;;;;;6.03;3.72;;;;;;;2.61;71.87;100854.66;5033940;28;20063;-22
2022/02/25 04:00:27;;;;;;;4.18;3.78;;;;;;;2.58;71.62;100849.38;5036550;28;20422;-22
2022/02/25 04:02:53;;;;;;;6.47;4.20;;;;;;;2.57;71.59;100864.13;5040130;28;20021;-22
2022/02/25 04:05:18;;;;;;;5.50;3.47;;;;;;;2.55;71.76;100860.59;5042883;28;20063;-22
2022/02/25 04:07:44;;;;;;;4.68;3.70;;;;;;;2.53;71.75;100862.25;5041070;28;20507;-22
2022/02/25 04:10:11;;;;;;;4.35;3.95;;;;;;;2.54;71.75;100869.25;5035038;28;20036;-21
2022/02/25 04:12:36;;;;;;;3.45;3.15;;;;;;;2.51;71.48;100874.38;5038275;28;20117;-22
2022/02/25 04:15:04;;;;;;;6.28;3.00;;;;;;;2.51;71.46;100877.88;5040840;28;20025;-22
2022/02/25 04:17:30;;;;;;;3.72;3.25;;;;;;;2.49;71.72;100881.25;5041001;28;20041;-22
2022/02/25 04:19:55;;;;;;;5.30;3.13;;;;;;;2.48;71.81;100888.19;5046686;28;20063;-22
2022/02/25 04:22:20;;;;;;;4.00;3.17;;;;;;;2.46;72.07;100881.19;5044080;28;20037;-22
2022/02/25 04:24:46;;;;;;;3.55;3.25;;;;;;;2.44;71.70;100886.34;5040607;28;20104;-22
2022/02/25 04:27:11;;;;;;;4.75;3.08;;;;;;;2.42;71.46;100891.50;5042422;28;20036;-22
2022/02/25 04:29:36;;;;;;;4.55;2.78;;;;;;;2.41;71.64;100884.53;5042393;28;20033;-22
2022/02/25 04:32:02;;;;;;;4.00;3.13;;;;;;;2.40;71.45;100887.13;5043492;28;20036;-22
2022/02/25 04:34:28;;;;;;;3.03;2.72;;;;;;;2.38;71.85;100894.88;5036470;28;20519;-22
2022/02/25 04:36:53;;;;;;;2.50;2.30;;;;;;;2.36;71.65;100890.44;5040523;28;20056;-22
2022/02/25 04:39:18;;;;;;;3.80;3.10;;;;;;;2.34;71.51;100898.22;5040602;28;20029;-22
2022/02/25 04:41:44;;;;;;;3.50;2.88;;;;;;;2.33;71.49;100891.25;5037707;28;20067;-22
2022/02/25 04:44:09;;;;;;;6.50;2.85;;;;;;;2.33;71.63;100901.66;5039597;28;20386;-22
2022/02/25 04:46:38;;;;;;;3.95;2.85;;;;;;;2.30;71.69;100898.94;5038362;28;20085;-22
2022/02/25 04:49:04;;;;;;;2.88;2.50;;;;;;;2.29;71.42;100897.19;5039285;28;20048;-22
2022/02/25 04:51:29;;;;;;;2.55;2.35;;;;;;;2.24;71.65;100899.69;5038209;28;20487;-22
2022/02/25 04:53:55;;;;;;;3.70;2.60;;;;;;;2.22;71.25;100893.53;5037032;28;20104;-22
2022/02/25 04:56:20;;;;;;;2.67;2.47;;;;;;;2.21;71.51;100906.50;5035390;28;20147;-22
2022/02/25 04:58:46;;;;;;;5.28;3.25;;;;;;;2.20;71.51;100916.03;5039116;28;20483;-22
2022/02/25 05:01:11;;;;;;;3.00;2.63;;;;;;;2.18;71.62;100905.59;5038816;28;20032;-21
2022/02/25 05:03:37;;;;;;;3.08;2.50;;;;;;;2.17;71.62;100910.75;5036598;28;20036;-22
2022/02/25 05:06:02;;;;;;;5.07;2.40;;;;;;;2.14;71.49;100911.53;5042402;28;20100;-22
2022/02/25 05:08:28;;;;;;;2.92;2.70;;;;;;;2.13;71.74;100914.97;5037405;28;20025;-22
2022/02/25 05:10:53;;;;;;;2.15;1.90;;;;;;;2.09;71.77;100915.72;5044608;28;20573;-22
2022/02/25 05:13:19;;;;;;;2.53;2.30;;;;;;;2.10;71.73;100930.50;5041687;28;20036;-22
2022/02/25 05:21:13;;;;;;;2.28;2.05;;;;;;;2.04;71.98;100927.72;5036235;28;20144;-22
2022/02/25 05:23:39;;;;;;;2.92;2.63;;;;;;;2.02;71.86;100938.09;5037077;28;20546;-22
2022/02/25 05:26:04;;;;;;;2.65;2.03;;;;;;;2.01;71.77;100944.13;5038856;28;20047;-22
2022/02/25 05:28:30;;;;;;;3.88;2.33;;;;;;;2.00;71.67;100951.88;5042149;28;20491;-22
2022/02/25 05:30:55;;;;;;;2.75;2.33;;;;;;;1.99;71.94;100956.19;5033620;28;20395;-22
2022/02/25 05:33:20;;;;;;;4.75;2.35;;;;;;;1.98;71.56;100966.56;5037057;28;20100;-22
2022/02/25 05:35:46;;;;;;;3.90;2.40;;;;;;;1.97;71.92;100968.25;5036735;28;20025;-22
2022/02/25 05:38:13;;;;;;;3.40;2.25;;;;;;;1.94;71.76;100973.41;5038851;28;20032;-22
2022/02/25 05:40:39;;;;;;;3.30;2.13;;;;;;;1.94;71.77;100964.69;5034253;28;20586;-22
2022/02/25 05:43:04;;;;;;;2.85;2.63;;;;;;;1.95;71.83;100989.88;5033478;28;20097;-22
2022/02/25 05:45:30;;;;;;;4.35;2.78;;;;;;;1.94;71.68;100975.09;5040749;28;20021;-22
2022/02/25 05:47:55;;;;;;;2.90;2.63;;;;;;;1.92;71.70;100980.25;5042338;28;20061;-22
2022/02/25 05:50:22;;;;;;;5.72;2.45;;;;;;;1.91;72.01;100989.75;5048790;28;20029;-22
2022/02/25 05:52:48;;;;;;;3.20;2.88;;;;;;;1.92;71.44;100988.06;5043201;28;20508;-22
2022/02/25 05:55:14;;;;;;;4.28;2.42;;;;;;;1.88;71.68;100984.50;5048189;28;20032;-21
2022/02/25 05:57:40;;;;;;;2.95;2.28;;;;;;;1.88;71.83;100994.91;5038490;28;20028;-22
2022/02/25 06:00:07;;;;;;;2.40;2.20;;;;;;;1.88;71.73;100992.28;5040474;28;20522;-22
2022/02/25 06:02:33;;;;;;;2.75;2.33;;;;;;;1.86;71.60;100996.56;5037364;28;20035;-22
2022/02/25 06:04:59;;;;;;;2.92;2.13;;;;;;;1.87;71.62;100993.09;5036044;28;20024;-22
2022/02/25 06:07:24;;;;;;;4.75;2.40;;;;;;;1.85;71.68;101002.59;5040813;28;20037;-22
2022/02/25 06:09:50;;;;;;;2.50;2.30;;;;;;;1.84;71.51;101000.84;5048661;28;20040;-22
2022/02/25 06:12:15;;;;;;;3.92;2.53;;;;;;;1.83;71.31;100999.03;5045192;28;20157;-22
2022/02/25 06:14:41;;;;;;;2.45;2.25;;;;;;;1.82;71.46;101001.59;5034032;28;20053;-22
2022/02/25 06:17:06;;;;;;;4.93;2.45;;;;;;;1.80;71.72;101006.75;5036959;28;20041;-22
2022/02/25 06:19:31;;;;;;;3.28;2.47;;;;;;;1.79;71.60;101007.59;5037751;28;20028;-22
2022/02/25 06:21:57;;;;;;;2.72;2.08;;;;;;;1.77;71.69;101017.06;5038974;28;20030;-21
2022/02/25 06:24:22;;;;;;;2.50;2.20;;;;;;;1.77;71.49;101011.88;5037920;28;20029;-22
2022/02/25 06:26:47;;;;;;;3.35;2.30;;;;;;;1.77;71.62;101017.06;5043588;28;20017;-22
2022/02/25 06:29:13;;;;;;;2.35;2.05;;;;;;;1.76;71.43;101026.59;5043616;28;20028;-22
2022/02/25 06:31:38;;;;;;;3.30;2.17;;;;;;;1.77;71.35;101022.28;5044348;28;20075;-22
2022/02/25 06:34:04;;;;;;;4.47;2.40;;;;;;;1.76;71.36;101028.28;5045152;28;20331;-22
2022/02/25 06:36:29;;;;;;;3.13;2.47;;;;;;;1.76;71.66;101025.69;5042010;28;20395;-22
2022/02/25 06:38:55;;;;;;;4.35;2.47;;;;;;;1.76;71.62;101023.09;5041528;28;20474;-22
2022/02/25 06:41:23;;;;;;;3.38;2.63;;;;;;;1.74;71.61;101024.78;5038368;28;20021;-22
2022/02/25 06:43:48;;;;;;;8.02;2.85;;;;;;;1.75;71.71;101026.53;5040170;28;20025;-22
2022/02/25 06:46:14;;;;;;;4.13;2.53;;;;;;;1.75;71.49;101031.72;5042402;28;20036;-22
2022/02/25 06:48:40;;;;;;;3.25;2.78;;;;;;;1.70;71.69;101028.97;5045794;28;20020;-22
2022/02/25 06:51:06;;;;;;;3.97;2.70;;;;;;;1.72;71.88;101021.22;5048385;28;20036;-22
2022/02/25 06:53:32;;;;;;;3.75;2.60;;;;;;;1.71;71.63;101030.75;5026375;28;20040;-22
2022/02/25 06:55:57;;;;;;;4.43;2.95;;;;;;;1.71;71.75;101032.47;5041555;28;20025;-22
2022/02/25 06:58:22;;;;;;;3.97;3.30;;;;;;;1.69;72.02;101042.81;5042269;28;20123;-22
2022/02/25 07:00:48;;;;;;;3.08;2.53;;;;;;;1.71;72.11;101040.28;5045381;28;20027;-22
2022/02/25 07:03:13;;;;;;;3.42;2.60;;;;;;;1.72;72.27;101042.03;5043951;28;20044;-21
2022/02/25 07:05:39;;;;;;;4.03;2.80;;;;;;;1.71;71.97;101048.06;5023130;28;20032;-21
2022/02/25 07:08:08;;;;;;;3.95;3.55;;;;;;;1.70;71.97;101048.91;5040872;28;20111;-21
2022/02/25 07:10:35;;;;;;;3.00;2.80;;;;;;;1.72;72.20;101052.44;5030343;28;20013;-22
2022/02/25 07:13:02;;;;;;;4.88;3.10;;;;;;;1.70;72.37;101046.31;5036286;28;20053;-22
2022/02/25 07:15:28;;;;;;;2.97;2.67;;;;;;;1.71;72.15;101050.66;5039554;28;20022;-22
2022/02/25 07:17:53;;;;;;;3.92;2.88;;;;;;;1.74;72.51;101061.19;5036547;28;20017;-22
2022/02/25 07:20:19;;;;;;;3.38;2.95;;;;;;;1.74;72.60;101055.97;5034661;28;20078;-22
2022/02/25 07:22:45;;;;;;;3.97;3.40;;;;;;;1.75;72.21;101063.84;5033785;28;20107;-22
2022/02/25 07:25:10;;;;;;;5.43;3.22;;;;;;;1.75;72.71;101050.84;5035956;28;20022;-22
2022/02/25 07:27:36;;;;;;;4.65;3.58;;;;;;;1.79;72.79;101064.81;5041872;28;20066;-22
2022/02/25 07:30:01;;;;;;;4.82;3.97;;;;;;;1.81;72.77;101063.16;5042105;28;20041;-22
2022/02/25 07:32:27;;;;;;;6.13;3.97;;;;;;;1.82;72.99;101062.31;5045327;28;20021;-22
2022/02/25 07:34:53;;;;;;;7.15;4.20;;;;;;;1.84;73.00;101052.88;5046107;28;20029;-22
2022/02/25 07:37:18;;;;;;;5.55;4.20;;;;;;;1.86;72.77;101056.38;5038082;28;20490;-22
2022/02/25 07:39:44;;;;;;;5.28;4.78;;;;;;;1.88;72.73;101056.44;5038182;28;20030;-22
2022/02/25 07:42:09;;;;;;;6.55;4.43;;;;;;;1.89;73.07;101051.28;5038525;28;20032;-22
2022/02/25 07:44:35;;;;;;;9.50;6.10;;;;;;;1.92;73.13;101061.78;5039259;28;20029;-22
2022/02/25 07:47:00;;;;;;;6.05;4.40;;;;;;;1.96;73.12;101061.91;5038175;28;20441;-22
2022/02/25 07:49:25;;;;;;;5.95;4.53;;;;;;;1.97;73.13;101063.66;5041806;28;20017;-22
2022/02/25 07:51:52;;;;;;;6.38;4.93;;;;;;;1.99;73.58;101070.69;5033251;28;20035;-22
2022/02/25 07:54:19;;;;;;;7.35;5.53;;;;;;;2.04;73.57;101070.84;5034218;28;20076;-22
2022/02/25 07:56:45;;;;;;;6.35;5.10;;;;;;;2.07;73.78;101076.16;5034867;28;20470;-22
2022/02/25 07:59:10;;;;;;;6.82;5.80;;;;;;;2.13;73.46;101084.13;5034499;28;20029;-22
2022/02/25 08:01:36;;;;;;;11.73;5.22;;;;;;;2.15;74.02;101085.06;5034146;28;20025;-22
2022/02/25 08:04:02;;;;;;;9.65;5.70;;;;;;;2.17;73.46;101082.53;5037799;28;20236;-22
2022/02/25 08:06:27;;;;;;;6.20;5.60;;;;;;;2.23;73.69;101087.03;5022653;28;20029;-22
2022/02/25 08:08:52;;;;;;;9.73;4.78;;;;;;;2.30;74.54;101109.81;5036127;28;20495;-22
2022/02/25 08:11:18;;;;;;;6.82;4.70;;;;;;;2.32;73.35;101097.75;5036686;28;20021;-22
2022/02/25 08:13:43;;;;;;;6.45;5.55;;;;;;;2.36;73.73;101099.59;5038791;28;20029;-22
2022/02/25 08:16:12;;;;;;;8.98;5.22;;;;;;;2.40;73.16;101095.38;5036707;28;20029;-22
2022/02/25 08:18:38;;;;;;;11.20;4.93;;;;;;;2.43;73.35;101106.78;5040526;28;20541;-22
2022/02/25 08:21:03;;;;;;;9.52;5.45;;;;;;;2.48;72.94;101108.63;5036592;28;20114;-22
2022/02/25 08:23:28;;;;;;;8.48;4.88;;;;;;;2.51;73.10;101108.72;5039251;28;20017;-22
2022/02/25 08:25:54;;;;;;;8.63;5.13;;;;;;;2.55;72.84;101113.19;5038614;28;20021;-22
2022/02/25 08:28:20;;;;;;;8.68;5.20;;;;;;;2.58;73.08;101113.31;5040626;28;20027;-22
2022/02/25 08:30:46;;;;;;;7.85;4.60;;;;;;;2.63;72.94;101114.31;5037923;28;20296;-21
2022/02/25 08:33:12;;;;;;;6.22;4.70;;;;;;;2.67;72.79;101116.16;5048123;28;20059;-22
2022/02/25 08:35:38;;;;;;;6.97;4.78;;;;;;;2.71;72.57;101122.38;5038716;28;20337;-22
2022/02/25 08:38:04;;;;;;;6.95;4.55;;;;;;;2.74;72.20;101113.75;5040954;28;20049;-22
2022/02/25 08:40:31;;;;;;;6.10;4.15;;;;;;;2.75;72.45;101113.81;5044137;28;20057;-22
2022/02/25 08:42:56;;;;;;;5.72;3.97;;;;;;;2.82;72.52;101120.97;5043242;28;20035;-22
2022/02/25 08:45:22;;;;;;;7.30;4.20;;;;;;;2.84;72.72;101112.31;5040178;28;20029;-22
2022/02/25 08:47:49;;;;;;;4.35;3.90;;;;;;;2.89;72.99;101110.72;5047885;28;20055;-22
2022/02/25 08:50:16;;;;;;;8.15;4.63;;;;;;;2.92;72.91;101114.31;5048195;28;20029;-22
2022/02/25 08:52:43;;;;;;;5.93;3.80;;;;;;;2.96;73.04;101120.50;5043921;28;20029;-22
2022/02/25 08:55:09;;;;;;;5.55;3.92;;;;;;;3.01;73.13;101112.81;5048805;28;20021;-22
2022/02/25 08:57:37;;;;;;;8.25;4.43;;;;;;;3.03;73.25;101109.41;5044954;28;20021;-22
2022/02/25 09:00:06;;;;;;;6.72;3.83;;;;;;;3.08;73.06;101128.66;5028156;28;20024;-22
2022/02/25 09:02:32;;;;;;;11.10;4.43;;;;;;;3.12;73.19;101102.69;5048226;28;20044;-22
2022/02/25 09:04:57;;;;;;;4.78;3.58;;;;;;;3.20;73.15;101112.50;5047936;28;20055;-21
2022/02/25 09:07:22;;;;;;;5.32;4.07;;;;;;;3.27;73.42;101108.34;5050446;28;20059;-22
2022/02/25 09:09:50;;;;;;;9.18;4.13;;;;;;;3.32;73.18;101108.47;5044457;28;20476;-22
2022/02/25 09:12:15;;;;;;;6.97;3.38;;;;;;;3.40;72.55;101114.78;5046898;28;20035;-22
2022/02/25 09:14:40;;;;;;;6.63;3.90;;;;;;;3.49;73.30;101113.25;5047909;28;20029;-22
2022/02/25 09:17:07;;;;;;;6.55;3.50;;;;;;;3.54;72.92;101116.91;5043594;28;20641;-22
2022/02/25 09:19:33;;;;;;;6.65;3.47;;;;;;;3.63;72.83;101122.34;5043240;28;20025;-22
2022/02/25 09:21:58;;;;;;;5.32;3.92;;;;;;;3.69;72.82;101117.31;5037308;28;20063;-22
2022/02/25 09:24:23;;;;;;;5.57;3.50;;;;;;;3.76;72.93;101125.31;5036513;28;20112;-22
2022/02/25 09:26:49;;;;;;;9.15;4.00;;;;;;;3.85;73.08;101117.69;5043053;28;20029;-22
2022/02/25 09:29:14;;;;;;;5.75;4.10;;;;;;;3.91;72.48;101117.88;5038830;28;20017;-22
2022/02/25 09:31:40;;;;;;;5.90;3.90;;;;;;;4.01;72.79;101129.44;5033787;28;20029;-22
2022/02/25 09:34:05;;;;;;;6.60;3.88;;;;;;;4.07;72.65;101136.53;5042808;28;20017;-22
2022/02/25 09:36:31;;;;;;;5.22;4.72;;;;;;;4.14;72.39;101122.78;5042419;28;20276;-22
2022/02/25 09:38:57;;;;;;;5.22;3.42;;;;;;;4.21;72.13;101122.06;5047271;28;20057;-22
2022/02/25 09:41:23;;;;;;;7.65;3.47;;;;;;;4.28;71.80;101122.22;5025461;28;20048;-22
2022/02/25 09:43:48;;;;;;;8.07;3.10;;;;;;;4.33;71.39;101121.50;5042575;28;20025;-22
2022/02/25 09:46:13;;;;;;;3.95;3.10;;;;;;;4.40;71.65;101127.72;5043975;28;20025;-22
2022/02/25 09:48:39;;;;;;;8.88;3.22;;;;;;;4.47;70.84;101124.41;5037579;28;20292;-22
2022/02/25 09:51:04;;;;;;;6.28;3.10;;;;;;;4.52;70.86;101126.25;5043247;28;20150;-22
2022/02/25 09:53:30;;;;;;;3.75;2.83;;;;;;;4.56;70.96;101123.75;5037244;28;20064;-22
2022/02/25 09:55:55;;;;;;;5.95;3.30;;;;;;;4.69;70.58;101134.47;5035682;28;20028;-22
2022/02/25 09:58:21;;;;;;;6.10;3.03;;;;;;;4.75;70.35;101134.63;5043708;28;20048;-22
2022/02/25 10:00:46;;;;;;;7.00;3.20;;;;;;;4.81;70.35;101149.56;5026772;28;20067;-22
2022/02/25 10:03:17;;;;;;;5.93;3.15;;;;;;;4.88;70.13;101156.69;5043293;28;20072;-22
2022/02/25 10:05:43;;;;;;;8.13;2.80;;;;;;;4.96;70.18;101164.69;5048333;28;20533;-22
2022/02/25 10:08:17;;;;;;;5.28;3.28;;;;;;;5.00;69.75;101163.91;5040372;28;20044;-22
2022/02/25 10:10:54;;;;;;;6.22;3.22;;;;;;;5.04;69.87;101165.78;5040051;28;20029;-22
2022/02/25 10:13:24;;;;;;;6.18;2.97;;;;;;;5.07;69.22;101168.44;5041794;28;20035;-22
2022/02/25 10:15:52;;;;;;;5.88;3.45;;;;;;;5.10;68.77;101172.88;5042661;28;20099;-22
2022/02/25 10:18:22;;;;;;;2.97;2.63;;;;;;;5.14;68.04;101175.56;5039460;28;20098;-22
2022/02/25 10:20:48;;;;;;;7.40;3.15;;;;;;;5.21;68.65;101175.69;5041858;28;20017;-22
2022/02/25 10:23:28;;;;;;;4.22;2.72;;;;;;;5.25;68.79;101161.84;5036717;28;20438;-22
2022/02/25 10:26:05;;;;;;;5.32;2.65;;;;;;;5.28;68.22;101167.13;5035335;28;20498;-22
2022/02/25 10:28:33;;;;;;;4.97;3.22;;;;;;;5.31;68.42;101163.69;5037600;28;20079;-22
2022/02/25 10:31:20;;;;;;;3.20;2.75;;;;;;;5.33;68.27;101160.25;5041300;28;20502;-22
2022/02/25 10:33:57;;;;;;;4.28;2.63;;;;;;;5.38;67.60;101168.19;5044686;28;20364;-22
2022/02/25 10:36:27;;;;;;;6.63;3.10;;;;;;;5.42;68.21;101159.56;5044188;28;20473;-22
2022/02/25 10:38:53;;;;;;;4.18;2.97;;;;;;;5.45;68.21;101162.25;5041882;28;20483;-22
2022/02/25 10:41:21;;;;;;;5.93;2.85;;;;;;;5.48;68.36;101149.22;5034710;28;20112;-22
2022/02/25 10:43:46;;;;;;;3.70;2.40;;;;;;;5.51;68.24;101143.16;5035481;28;20489;-22
2022/02/25 10:46:12;;;;;;;6.70;3.30;;;;;;;5.56;67.92;101145.84;5037467;28;20025;-22
2022/02/25 10:48:37;;;;;;;5.97;2.90;;;;;;;5.58;68.21;101128.47;5033973;28;20039;-22
2022/02/25 10:51:04;;;;;;;5.97;3.25;;;;;;;5.58;67.49;101128.47;5037542;28;20084;-22
2022/02/25 10:53:36;;;;;;;3.33;2.30;;;;;;;5.61;67.22;101125.91;5032812;28;20187;-22
2022/02/25 10:56:10;;;;;;;6.60;2.45;;;;;;;5.63;67.58;101126.81;5036181;28;20029;-22
2022/02/25 10:58:44;;;;;;;5.05;3.10;;;;;;;5.66;67.86;101132.09;5046837;28;20035;-22
2022/02/25 11:01:11;;;;;;;3.70;2.17;;;;;;;5.67;66.89;101131.22;5040774;28;20549;-21
2022/02/25 11:03:37;;;;;;;3.00;2.70;;;;;;;5.70;67.58;101136.53;5045710;28;20078;-22
2022/02/25 11:06:06;;;;;;;3.75;2.50;;;;;;;5.71;67.40;101120.00;5047839;28;20016;-22
2022/02/25 11:08:32;;;;;;;4.50;2.42;;;;;;;5.75;66.48;101142.75;5045986;28;20017;-22
2022/02/25 11:10:57;;;;;;;5.20;2.60;;;;;;;5.77;66.23;101130.56;5041449;28;20529;-21
2022/02/25 11:13:23;;;;;;;6.28;2.55;;;;;;;5.81;66.85;101130.63;5027002;28;20021;-21
2022/02/25 11:15:48;;;;;;;4.68;2.40;;;;;;;5.81;67.16;101120.16;5042987;28;20080;-22
2022/02/25 11:18:14;;;;;;;6.50;2.20;;;;;;;5.82;66.51;101119.28;5035393;28;20017;-22
2022/02/25 11:20:43;;;;;;;7.47;2.75;;;;;;;5.86;66.96;101121.09;5035079;28;20039;-22
2022/02/25 11:23:13;;;;;;;5.22;2.42;;;;;;;5.89;67.02;101118.53;5039350;28;20021;-22
2022/02/25 11:25:41;;;;;;;6.82;2.53;;;;;;;5.92;67.31;101113.38;5032010;28;20021;-22
2022/02/25 11:28:07;;;;;;;5.05;2.40;;;;;;;5.97;66.74;101122.16;5039330;28;20369;-22
2022/02/25 11:30:38;;;;;;;4.13;2.13;;;;;;;5.99;67.64;101110.00;5033879;28;20032;-22
2022/02/25 11:33:08;;;;;;;4.13;2.33;;;;;;;6.02;67.45;101117.91;5036872;28;20108;-22
2022/02/25 11:35:38;;;;;;;5.35;2.33;;;;;;;6.06;66.02;101125.88;5039434;28;20024;-22
2022/02/25 11:38:10;;;;;;;5.85;2.70;;;;;;;6.09;65.66;101115.41;5036422;28;20025;-22